Beeville, TX (78102)

5:40 PM CST on March 03, 2015 (GMT -0600)
Beeville | Change Station
CLOSE
Current Station
Airport
Location: Beeville,
Elevation: 269 ft
Nearby Weather Stations

Elev 269 ft 28.37 °N, 97.80 °W | Updated 5 minutes ago

Overcast
Overcast
61 °F
Feels Like 61 °F
N
0
Wind Variable Wind from North

Today
High -- | Low -- °F
--% Chance of Precip.
Yesterday
High -- | Low -- °F
Precip. -- in
6:53 AM 6:32 PM
Waxing Gibbous, 97% visible
Pressure 29.83 in
Visibility 4.0 miles
Clouds Overcast 500 ft
Dew Point 61 °F
Humidity 100%
Rainfall 0.00 in
Snow Depth Not available.
UV 0 out of 12
Pollen 9.30 out of 12
Air Quality Not available.
Flu Activity Not available.
METAR KBEA 032335Z AUTO 00000KT 4SM BR OVC005 16/16 A2983 RMK AO2 T01610161

More Conditions Fewer Conditions

Pressure 29.83 in
Visibility 4.0 miles
Clouds Overcast 500 ft
Dew Point 61 °F
Humidity 100%
Rainfall 0.00 in
Snow Depth Not available.
UV 0 out of 12
Pollen 9.30 out of 12
Air Quality Not available.
Flu Activity Not available.
METAR KBEA 032335Z AUTO 00000KT 4SM BR OVC005 16/16 A2983 RMK AO2 T01610161

More Conditions Fewer Conditions

10-Day Weather Forecast

Almanac

Astronomy

Mar. 03, 2015 Rise Set
Actual Time
Civil Twilight
Nautical Twilight
Astronomical Twilight
Moon
Length of Visible Light
Length of Day
Tomorrow will be .
, % of the Moon is Illuminated

Today's Extremes

State Highs State Lows

Community

WunderPhotos

Upload Photos

1,802,305 photos uploaded!

WunderBlogs® & News

Nearby

Air Quality

  Air Quality AQ Index Pollutant
Not available.

Snow Depth

Station Depth Elevation

Earthquake Activity

City Distance Mag. Time & Date
Minimum magnitude displayed is 2.5.

Coastal Water Temperatures

Place Temperature

Nearby Weather Stations